sensor_id;sensor_type;location;lat;lon;timestamp;temperature;humidity
30594;DHT22;33199;47.590;8.300;2022-09-09T00:01:19;22.60;60.20
30594;DHT22;33199;47.590;8.300;2022-09-09T00:06:31;22.60;60.20
30594;DHT22;33199;47.590;8.300;2022-09-09T00:09:06;22.60;60.30
30594;DHT22;33199;47.590;8.300;2022-09-09T00:17:26;22.60;60.30
30594;DHT22;33199;47.590;8.300;2022-09-09T00:19:58;22.60;60.30
30594;DHT22;33199;47.590;8.300;2022-09-09T00:22:28;22.50;60.30
30594;DHT22;33199;47.590;8.300;2022-09-09T00:25:02;22.60;60.30
30594;DHT22;33199;47.590;8.300;2022-09-09T00:27:45;22.50;60.20
30594;DHT22;33199;47.590;8.300;2022-09-09T00:30:26;22.50;60.20
30594;DHT22;33199;47.590;8.300;2022-09-09T00:32:55;22.50;60.20
30594;DHT22;33199;47.590;8.300;2022-09-09T00:35:30;22.50;60.20
30594;DHT22;33199;47.590;8.300;2022-09-09T00:38:00;22.60;60.30
30594;DHT22;33199;47.590;8.300;2022-09-09T00:40:41;22.50;60.20
30594;DHT22;33199;47.590;8.300;2022-09-09T00:43:26;22.50;60.20
30594;DHT22;33199;47.590;8.300;2022-09-09T00:54:10;22.50;60.20
30594;DHT22;33199;47.590;8.300;2022-09-09T00:59:20;22.50;60.20
30594;DHT22;33199;47.590;8.300;2022-09-09T01:01:51;22.50;60.20
30594;DHT22;33199;47.590;8.300;2022-09-09T01:04:23;22.50;60.20
30594;DHT22;33199;47.590;8.300;2022-09-09T01:06:59;22.50;60.20
30594;DHT22;33199;47.590;8.300;2022-09-09T01:09:32;22.40;60.20
30594;DHT22;33199;47.590;8.300;2022-09-09T01:17:13;22.50;60.20
30594;DHT22;33199;47.590;8.300;2022-09-09T01:22:21;22.40;60.10
30594;DHT22;33199;47.590;8.300;2022-09-09T01:25:18;22.40;60.20
30594;DHT22;33199;47.590;8.300;2022-09-09T01:27:46;22.50;60.20
30594;DHT22;33199;47.590;8.300;2022-09-09T01:30:16;22.40;60.10
30594;DHT22;33199;47.590;8.300;2022-09-09T01:32:47;22.40;60.20
30594;DHT22;33199;47.590;8.300;2022-09-09T01:38:01;22.40;60.10
30594;DHT22;33199;47.590;8.300;2022-09-09T01:40:27;22.40;60.20
30594;DHT22;33199;47.590;8.300;2022-09-09T01:42:53;22.40;60.20
30594;DHT22;33199;47.590;8.300;2022-09-09T01:45:19;22.40;60.20
30594;DHT22;33199;47.590;8.300;2022-09-09T01:47:45;22.40;60.10
30594;DHT22;33199;47.590;8.300;2022-09-09T01:50:14;22.40;60.10
30594;DHT22;33199;47.590;8.300;2022-09-09T01:52:40;22.40;60.10
30594;DHT22;33199;47.590;8.300;2022-09-09T01:55:07;22.30;60.00
30594;DHT22;33199;47.590;8.300;2022-09-09T01:58:09;22.40;60.10
30594;DHT22;33199;47.590;8.300;2022-09-09T02:00:41;22.40;60.00
30594;DHT22;33199;47.590;8.300;2022-09-09T02:05:38;22.40;60.20
30594;DHT22;33199;47.590;8.300;2022-09-09T02:08:09;22.40;60.10
30594;DHT22;33199;47.590;8.300;2022-09-09T02:10:50;22.40;60.10
30594;DHT22;33199;47.590;8.300;2022-09-09T02:13:20;22.30;60.00
30594;DHT22;33199;47.590;8.300;2022-09-09T02:15:57;22.30;60.10
30594;DHT22;33199;47.590;8.300;2022-09-09T02:18:56;22.40;60.00
30594;DHT22;33199;47.590;8.300;2022-09-09T02:21:23;22.30;60.00
30594;DHT22;33199;47.590;8.300;2022-09-09T02:23:50;22.30;60.10
30594;DHT22;33199;47.590;8.300;2022-09-09T02:26:19;22.30;60.00
30594;DHT22;33199;47.590;8.300;2022-09-09T02:28:51;22.30;60.10
30594;DHT22;33199;47.590;8.300;2022-09-09T02:31:21;22.30;60.10
30594;DHT22;33199;47.590;8.300;2022-09-09T02:33:52;22.30;60.10
30594;DHT22;33199;47.590;8.300;2022-09-09T02:36:20;22.30;60.10
30594;DHT22;33199;47.590;8.300;2022-09-09T02:38:47;22.30;60.10
30594;DHT22;33199;47.590;8.300;2022-09-09T02:41:20;22.30;60.10
30594;DHT22;33199;47.590;8.300;2022-09-09T02:43:48;22.30;60.10
30594;DHT22;33199;47.590;8.300;2022-09-09T02:49:06;22.20;60.00
30594;DHT22;33199;47.590;8.300;2022-09-09T02:54:33;22.20;60.00
30594;DHT22;33199;47.590;8.300;2022-09-09T02:57:12;22.20;60.10
30594;DHT22;33199;47.590;8.300;2022-09-09T02:59:43;22.20;60.20
30594;DHT22;33199;47.590;8.300;2022-09-09T03:02:09;22.20;60.20
30594;DHT22;33199;47.590;8.300;2022-09-09T03:04:37;22.20;60.20
30594;DHT22;33199;47.590;8.300;2022-09-09T03:07:02;22.20;60.10
30594;DHT22;33199;47.590;8.300;2022-09-09T03:09:29;22.20;60.10
30594;DHT22;33199;47.590;8.300;2022-09-09T03:11:54;22.20;60.10
30594;DHT22;33199;47.590;8.300;2022-09-09T03:14:21;22.20;60.10
30594;DHT22;33199;47.590;8.300;2022-09-09T03:16:50;22.20;60.10
30594;DHT22;33199;47.590;8.300;2022-09-09T03:19:16;22.20;60.10
30594;DHT22;33199;47.590;8.300;2022-09-09T03:21:41;22.20;60.10
30594;DHT22;33199;47.590;8.300;2022-09-09T03:24:07;22.20;60.10
30594;DHT22;33199;47.590;8.300;2022-09-09T03:26:33;22.20;60.10
30594;DHT22;33199;47.590;8.300;2022-09-09T03:28:58;22.20;60.10
30594;DHT22;33199;47.590;8.300;2022-09-09T03:31:26;22.20;60.10
30594;DHT22;33199;47.590;8.300;2022-09-09T03:33:51;22.10;60.00
30594;DHT22;33199;47.590;8.300;2022-09-09T03:36:17;22.10;60.00
30594;DHT22;33199;47.590;8.300;2022-09-09T03:38:42;22.10;60.00
30594;DHT22;33199;47.590;8.300;2022-09-09T03:41:08;22.20;60.10
30594;DHT22;33199;47.590;8.300;2022-09-09T03:43:34;22.20;60.10
30594;DHT22;33199;47.590;8.300;2022-09-09T03:46:00;22.10;60.10
30594;DHT22;33199;47.590;8.300;2022-09-09T03:48:26;22.10;60.20
30594;DHT22;33199;47.590;8.300;2022-09-09T03:50:54;22.10;60.20
30594;DHT22;33199;47.590;8.300;2022-09-09T03:53:22;22.10;60.10
30594;DHT22;33199;47.590;8.300;2022-09-09T03:55:50;22.10;60.10
30594;DHT22;33199;47.590;8.300;2022-09-09T03:58:18;22.10;60.10
30594;DHT22;33199;47.590;8.300;2022-09-09T04:03:29;22.10;60.10
30594;DHT22;33199;47.590;8.300;2022-09-09T04:05:56;22.10;60.20
30594;DHT22;33199;47.590;8.300;2022-09-09T04:08:23;22.10;60.20
30594;DHT22;33199;47.590;8.300;2022-09-09T04:10:52;22.10;60.20
30594;DHT22;33199;47.590;8.300;2022-09-09T04:13:18;22.10;60.10
30594;DHT22;33199;47.590;8.300;2022-09-09T04:15:51;22.10;60.10
30594;DHT22;33199;47.590;8.300;2022-09-09T04:18:17;22.00;60.10
30594;DHT22;33199;47.590;8.300;2022-09-09T04:20:45;22.10;60.10
30594;DHT22;33199;47.590;8.300;2022-09-09T04:23:10;22.10;60.20
30594;DHT22;33199;47.590;8.300;2022-09-09T04:25:36;22.00;60.10
30594;DHT22;33199;47.590;8.300;2022-09-09T04:28:03;22.00;60.20
30594;DHT22;33199;47.590;8.300;2022-09-09T04:30:28;22.00;60.10
30594;DHT22;33199;47.590;8.300;2022-09-09T04:32:54;22.00;60.20
30594;DHT22;33199;47.590;8.300;2022-09-09T04:35:20;22.00;60.10
30594;DHT22;33199;47.590;8.300;2022-09-09T04:37:45;22.00;60.10
30594;DHT22;33199;47.590;8.300;2022-09-09T04:40:11;22.00;60.10
30594;DHT22;33199;47.590;8.300;2022-09-09T04:42:37;22.00;60.10
30594;DHT22;33199;47.590;8.300;2022-09-09T04:45:04;22.00;60.10
30594;DHT22;33199;47.590;8.300;2022-09-09T04:47:30;22.00;60.10
30594;DHT22;33199;47.590;8.300;2022-09-09T04:49:55;22.00;60.10
30594;DHT22;33199;47.590;8.300;2022-09-09T04:52:21;22.00;60.20
30594;DHT22;33199;47.590;8.300;2022-09-09T04:54:47;22.00;60.10
30594;DHT22;33199;47.590;8.300;2022-09-09T04:57:13;22.00;60.10
30594;DHT22;33199;47.590;8.300;2022-09-09T04:59:39;22.00;60.10
30594;DHT22;33199;47.590;8.300;2022-09-09T05:02:05;22.00;60.10
30594;DHT22;33199;47.590;8.300;2022-09-09T05:04:31;22.00;60.10
30594;DHT22;33199;47.590;8.300;2022-09-09T05:06:56;22.00;60.90
30594;DHT22;33199;47.590;8.300;2022-09-09T05:09:22;22.00;60.00
30594;DHT22;33199;47.590;8.300;2022-09-09T05:11:48;22.00;60.10
30594;DHT22;33199;47.590;8.300;2022-09-09T05:14:14;22.00;60.10
30594;DHT22;33199;47.590;8.300;2022-09-09T05:16:40;22.00;60.10
30594;DHT22;33199;47.590;8.300;2022-09-09T05:19:06;21.90;60.00
30594;DHT22;33199;47.590;8.300;2022-09-09T05:21:34;22.00;60.10
30594;DHT22;33199;47.590;8.300;2022-09-09T05:23:59;22.00;60.10
30594;DHT22;33199;47.590;8.300;2022-09-09T05:26:28;22.00;60.10
30594;DHT22;33199;47.590;8.300;2022-09-09T05:28:54;22.00;60.10
30594;DHT22;33199;47.590;8.300;2022-09-09T05:31:20;21.90;60.10
30594;DHT22;33199;47.590;8.300;2022-09-09T05:33:47;21.90;60.00
30594;DHT22;33199;47.590;8.300;2022-09-09T05:36:16;21.90;60.10
30594;DHT22;33199;47.590;8.300;2022-09-09T05:38:43;21.90;60.10
30594;DHT22;33199;47.590;8.300;2022-09-09T05:41:10;21.90;60.10
30594;DHT22;33199;47.590;8.300;2022-09-09T05:43:41;21.70;58.20
30594;DHT22;33199;47.590;8.300;2022-09-09T05:46:18;21.50;58.20
30594;DHT22;33199;47.590;8.300;2022-09-09T05:48:46;21.40;58.60
30594;DHT22;33199;47.590;8.300;2022-09-09T05:51:15;21.20;58.90
30594;DHT22;33199;47.590;8.300;2022-09-09T05:53:41;21.00;59.20
30594;DHT22;33199;47.590;8.300;2022-09-09T05:56:12;20.90;59.70
30594;DHT22;33199;47.590;8.300;2022-09-09T05:58:40;20.70;59.70
30594;DHT22;33199;47.590;8.300;2022-09-09T06:01:25;20.60;60.10
30594;DHT22;33199;47.590;8.300;2022-09-09T06:03:52;20.40;61.00
30594;DHT22;33199;47.590;8.300;2022-09-09T06:06:20;20.30;61.80
30594;DHT22;33199;47.590;8.300;2022-09-09T06:08:48;20.30;62.30
30594;DHT22;33199;47.590;8.300;2022-09-09T06:11:19;20.20;62.50
30594;DHT22;33199;47.590;8.300;2022-09-09T06:13:44;20.10;62.50
30594;DHT22;33199;47.590;8.300;2022-09-09T06:16:13;20.00;62.90
30594;DHT22;33199;47.590;8.300;2022-09-09T06:18:39;20.10;63.40
30594;DHT22;33199;47.590;8.300;2022-09-09T06:21:08;20.00;63.80
30594;DHT22;33199;47.590;8.300;2022-09-09T06:23:34;19.90;64.40
30594;DHT22;33199;47.590;8.300;2022-09-09T06:26:07;19.90;64.70
30594;DHT22;33199;47.590;8.300;2022-09-09T06:28:35;20.00;64.70
30594;DHT22;33199;47.590;8.300;2022-09-09T06:31:11;20.00;64.40
30594;DHT22;33199;47.590;8.300;2022-09-09T06:33:39;20.20;64.10
30594;DHT22;33199;47.590;8.300;2022-09-09T06:36:10;20.30;63.60
30594;DHT22;33199;47.590;8.300;2022-09-09T06:38:36;20.40;63.30
30594;DHT22;33199;47.590;8.300;2022-09-09T06:41:02;20.40;63.20
30594;DHT22;33199;47.590;8.300;2022-09-09T06:43:28;20.40;63.20
30594;DHT22;33199;47.590;8.300;2022-09-09T06:45:54;20.20;63.70
30594;DHT22;33199;47.590;8.300;2022-09-09T06:48:20;20.20;64.00
30594;DHT22;33199;47.590;8.300;2022-09-09T06:50:46;20.30;64.10
30594;DHT22;33199;47.590;8.300;2022-09-09T06:53:12;20.30;63.90
30594;DHT22;33199;47.590;8.300;2022-09-09T06:55:37;20.30;63.70
30594;DHT22;33199;47.590;8.300;2022-09-09T06:58:08;20.40;63.50
30594;DHT22;33199;47.590;8.300;2022-09-09T07:00:33;20.50;63.00
30594;DHT22;33199;47.590;8.300;2022-09-09T07:02:59;20.50;62.50
30594;DHT22;33199;47.590;8.300;2022-09-09T07:05:24;20.60;62.40
30594;DHT22;33199;47.590;8.300;2022-09-09T07:07:51;20.60;62.20
30594;DHT22;33199;47.590;8.300;2022-09-09T07:10:17;20.70;61.90
30594;DHT22;33199;47.590;8.300;2022-09-09T07:12:43;20.70;61.90
30594;DHT22;33199;47.590;8.300;2022-09-09T07:15:10;20.70;61.70
30594;DHT22;33199;47.590;8.300;2022-09-09T07:17:36;20.80;61.50
30594;DHT22;33199;47.590;8.300;2022-09-09T07:20:02;20.80;61.50
30594;DHT22;33199;47.590;8.300;2022-09-09T07:22:29;20.80;61.40
30594;DHT22;33199;47.590;8.300;2022-09-09T07:24:54;20.80;61.30
30594;DHT22;33199;47.590;8.300;2022-09-09T07:27:20;20.80;61.40
30594;DHT22;33199;47.590;8.300;2022-09-09T07:29:47;20.80;61.40
30594;DHT22;33199;47.590;8.300;2022-09-09T07:32:13;20.80;61.30
30594;DHT22;33199;47.590;8.300;2022-09-09T07:34:39;20.90;61.40
30594;DHT22;33199;47.590;8.300;2022-09-09T07:37:05;20.90;61.30
30594;DHT22;33199;47.590;8.300;2022-09-09T07:39:30;20.90;61.30
30594;DHT22;33199;47.590;8.300;2022-09-09T07:41:56;20.90;61.20
30594;DHT22;33199;47.590;8.300;2022-09-09T07:44:24;20.90;61.30
30594;DHT22;33199;47.590;8.300;2022-09-09T07:46:51;20.90;61.20
30594;DHT22;33199;47.590;8.300;2022-09-09T07:49:17;20.90;61.20
30594;DHT22;33199;47.590;8.300;2022-09-09T07:51:45;20.90;61.20
30594;DHT22;33199;47.590;8.300;2022-09-09T07:54:12;20.90;61.20
30594;DHT22;33199;47.590;8.300;2022-09-09T07:56:39;20.90;61.20
30594;DHT22;33199;47.590;8.300;2022-09-09T07:59:06;20.90;61.10
30594;DHT22;33199;47.590;8.300;2022-09-09T08:01:32;20.90;61.10
30594;DHT22;33199;47.590;8.300;2022-09-09T08:04:01;20.90;61.10
30594;DHT22;33199;47.590;8.300;2022-09-09T08:06:32;20.90;61.10
30594;DHT22;33199;47.590;8.300;2022-09-09T08:09:00;21.00;61.10
30594;DHT22;33199;47.590;8.300;2022-09-09T08:11:28;20.90;61.00
30594;DHT22;33199;47.590;8.300;2022-09-09T08:13:55;21.00;61.10
30594;DHT22;33199;47.590;8.300;2022-09-09T08:16:24;21.00;61.10
30594;DHT22;33199;47.590;8.300;2022-09-09T08:18:50;20.90;61.10
30594;DHT22;33199;47.590;8.300;2022-09-09T08:21:22;20.90;61.20
30594;DHT22;33199;47.590;8.300;2022-09-09T08:23:51;20.90;61.20
30594;DHT22;33199;47.590;8.300;2022-09-09T08:26:38;20.90;61.10
30594;DHT22;33199;47.590;8.300;2022-09-09T08:29:06;21.00;61.10
30594;DHT22;33199;47.590;8.300;2022-09-09T08:31:35;21.00;61.10
30594;DHT22;33199;47.590;8.300;2022-09-09T08:34:01;21.00;61.10
30594;DHT22;33199;47.590;8.300;2022-09-09T08:36:33;21.00;61.10
30594;DHT22;33199;47.590;8.300;2022-09-09T08:39:00;21.00;61.10
30594;DHT22;33199;47.590;8.300;2022-09-09T08:47:23;21.00;61.10
30594;DHT22;33199;47.590;8.300;2022-09-09T08:50:00;21.00;61.10
30594;DHT22;33199;47.590;8.300;2022-09-09T08:55:58;21.00;61.00
30594;DHT22;33199;47.590;8.300;2022-09-09T08:58:29;21.00;61.00
30594;DHT22;33199;47.590;8.300;2022-09-09T09:06:39;21.00;60.90
30594;DHT22;33199;47.590;8.300;2022-09-09T09:11:59;21.10;60.90
30594;DHT22;33199;47.590;8.300;2022-09-09T09:14:29;21.10;60.90
30594;DHT22;33199;47.590;8.300;2022-09-09T09:17:04;21.10;60.90
30594;DHT22;33199;47.590;8.300;2022-09-09T09:19:34;21.10;60.90
30594;DHT22;33199;47.590;8.300;2022-09-09T09:22:21;21.10;60.90
30594;DHT22;33199;47.590;8.300;2022-09-09T09:25:15;21.10;60.80
30594;DHT22;33199;47.590;8.300;2022-09-09T09:30:52;21.10;60.80
30594;DHT22;33199;47.590;8.300;2022-09-09T09:35:57;21.10;60.70
30594;DHT22;33199;47.590;8.300;2022-09-09T09:38:27;21.10;60.70
30594;DHT22;33199;47.590;8.300;2022-09-09T09:40:55;21.10;60.70
30594;DHT22;33199;47.590;8.300;2022-09-09T09:43:32;21.10;60.70
30594;DHT22;33199;47.590;8.300;2022-09-09T09:45:58;21.10;60.60
30594;DHT22;33199;47.590;8.300;2022-09-09T09:48:26;21.10;60.70
30594;DHT22;33199;47.590;8.300;2022-09-09T09:50:55;21.10;60.70
30594;DHT22;33199;47.590;8.300;2022-09-09T09:53:26;21.10;60.70
30594;DHT22;33199;47.590;8.300;2022-09-09T09:58:27;21.10;60.60
30594;DHT22;33199;47.590;8.300;2022-09-09T10:00:56;21.10;60.60
30594;DHT22;33199;47.590;8.300;2022-09-09T10:03:25;21.10;60.60
30594;DHT22;33199;47.590;8.300;2022-09-09T10:05:52;21.10;60.60
30594;DHT22;33199;47.590;8.300;2022-09-09T10:08:18;21.10;60.50
30594;DHT22;33199;47.590;8.300;2022-09-09T10:16:23;21.10;60.60
30594;DHT22;33199;47.590;8.300;2022-09-09T10:19:13;21.10;61.30
30594;DHT22;33199;47.590;8.300;2022-09-09T10:36:12;21.10;60.60
30594;DHT22;33199;47.590;8.300;2022-09-09T10:38:45;21.20;60.60
30594;DHT22;33199;47.590;8.300;2022-09-09T10:47:30;21.20;60.40
30594;DHT22;33199;47.590;8.300;2022-09-09T10:50:14;21.20;60.30
30594;DHT22;33199;47.590;8.300;2022-09-09T10:55:41;21.20;60.30
30594;DHT22;33199;47.590;8.300;2022-09-09T10:58:12;21.20;60.30
30594;DHT22;33199;47.590;8.300;2022-09-09T11:00:47;21.20;60.30
30594;DHT22;33199;47.590;8.300;2022-09-09T11:03:25;21.20;60.30
30594;DHT22;33199;47.590;8.300;2022-09-09T11:05:59;21.20;60.10
30594;DHT22;33199;47.590;8.300;2022-09-09T11:08:34;21.20;60.10
30594;DHT22;33199;47.590;8.300;2022-09-09T11:11:12;21.20;60.10
30594;DHT22;33199;47.590;8.300;2022-09-09T11:21:48;21.30;60.20
30594;DHT22;33199;47.590;8.300;2022-09-09T11:24:50;21.30;60.20
30594;DHT22;33199;47.590;8.300;2022-09-09T11:27:21;21.30;60.20
30594;DHT22;33199;47.590;8.300;2022-09-09T11:33:04;21.30;60.20
30594;DHT22;33199;47.590;8.300;2022-09-09T11:36:10;21.30;60.30
30594;DHT22;33199;47.590;8.300;2022-09-09T11:38:52;21.30;60.20
30594;DHT22;33199;47.590;8.300;2022-09-09T11:41:20;21.30;60.30
30594;DHT22;33199;47.590;8.300;2022-09-09T11:43:48;21.30;60.30
30594;DHT22;33199;47.590;8.300;2022-09-09T11:46:22;21.30;60.10
30594;DHT22;33199;47.590;8.300;2022-09-09T11:49:03;21.30;60.10
30594;DHT22;33199;47.590;8.300;2022-09-09T11:51:31;21.30;60.20
30594;DHT22;33199;47.590;8.300;2022-09-09T11:56:46;21.30;60.10
30594;DHT22;33199;47.590;8.300;2022-09-09T11:59:37;21.40;60.00
30594;DHT22;33199;47.590;8.300;2022-09-09T12:02:13;21.40;60.20
30594;DHT22;33199;47.590;8.300;2022-09-09T12:04:49;21.40;60.20
30594;DHT22;33199;47.590;8.300;2022-09-09T12:07:41;21.40;60.10
30594;DHT22;33199;47.590;8.300;2022-09-09T12:12:49;21.40;60.20
30594;DHT22;33199;47.590;8.300;2022-09-09T12:17:51;21.40;60.10
30594;DHT22;33199;47.590;8.300;2022-09-09T12:20:35;21.40;60.20
30594;DHT22;33199;47.590;8.300;2022-09-09T12:25:58;21.40;60.10
30594;DHT22;33199;47.590;8.300;2022-09-09T12:39:43;21.40;60.20
30594;DHT22;33199;47.590;8.300;2022-09-09T12:42:21;21.40;60.00
30594;DHT22;33199;47.590;8.300;2022-09-09T12:44:51;21.40;60.00
30594;DHT22;33199;47.590;8.300;2022-09-09T12:47:19;21.40;60.10
30594;DHT22;33199;47.590;8.300;2022-09-09T12:49:45;21.40;60.00
30594;DHT22;33199;47.590;8.300;2022-09-09T12:54:52;21.50;60.20
30594;DHT22;33199;47.590;8.300;2022-09-09T12:57:19;21.40;60.00
30594;DHT22;33199;47.590;8.300;2022-09-09T12:59:47;21.50;60.00
30594;DHT22;33199;47.590;8.300;2022-09-09T13:02:26;21.50;59.90
30594;DHT22;33199;47.590;8.300;2022-09-09T13:04:53;21.40;59.90
30594;DHT22;33199;47.590;8.300;2022-09-09T13:07:20;21.40;59.90
30594;DHT22;33199;47.590;8.300;2022-09-09T13:09:48;21.50;60.00
30594;DHT22;33199;47.590;8.300;2022-09-09T13:12:21;21.50;59.90
30594;DHT22;33199;47.590;8.300;2022-09-09T13:14:50;21.50;59.90
30594;DHT22;33199;47.590;8.300;2022-09-09T13:17:21;21.50;59.90
30594;DHT22;33199;47.590;8.300;2022-09-09T13:19:47;21.50;59.90
30594;DHT22;33199;47.590;8.300;2022-09-09T13:22:31;21.50;59.90
30594;DHT22;33199;47.590;8.300;2022-09-09T13:28:01;21.50;59.90
30594;DHT22;33199;47.590;8.300;2022-09-09T13:30:37;21.50;60.00
30594;DHT22;33199;47.590;8.300;2022-09-09T13:33:20;21.50;60.00
30594;DHT22;33199;47.590;8.300;2022-09-09T13:35:56;21.50;59.90
30594;DHT22;33199;47.590;8.300;2022-09-09T13:38:22;21.50;59.90
30594;DHT22;33199;47.590;8.300;2022-09-09T13:43:27;21.60;59.90
30594;DHT22;33199;47.590;8.300;2022-09-09T13:45:59;21.60;59.80
30594;DHT22;33199;47.590;8.300;2022-09-09T13:48:25;21.60;59.90
30594;DHT22;33199;47.590;8.300;2022-09-09T13:50:59;21.60;59.90
30594;DHT22;33199;47.590;8.300;2022-09-09T13:53:26;21.60;59.80
30594;DHT22;33199;47.590;8.300;2022-09-09T13:55:52;21.60;59.80
30594;DHT22;33199;47.590;8.300;2022-09-09T13:58:18;21.60;59.80
30594;DHT22;33199;47.590;8.300;2022-09-09T14:00:45;21.60;59.70
30594;DHT22;33199;47.590;8.300;2022-09-09T14:03:11;21.60;59.70
30594;DHT22;33199;47.590;8.300;2022-09-09T14:05:37;21.60;59.80
30594;DHT22;33199;47.590;8.300;2022-09-09T14:08:04;21.60;59.70
30594;DHT22;33199;47.590;8.300;2022-09-09T14:10:30;21.60;59.80
30594;DHT22;33199;47.590;8.300;2022-09-09T14:12:56;21.60;59.60
30594;DHT22;33199;47.590;8.300;2022-09-09T14:15:22;21.60;59.70
30594;DHT22;33199;47.590;8.300;2022-09-09T14:17:47;21.60;59.70
30594;DHT22;33199;47.590;8.300;2022-09-09T14:20:14;21.60;59.70
30594;DHT22;33199;47.590;8.300;2022-09-09T14:22:41;21.60;59.70
30594;DHT22;33199;47.590;8.300;2022-09-09T14:25:07;21.60;59.70
30594;DHT22;33199;47.590;8.300;2022-09-09T14:27:33;21.60;59.70
30594;DHT22;33199;47.590;8.300;2022-09-09T14:29:59;21.60;59.70
30594;DHT22;33199;47.590;8.300;2022-09-09T14:32:26;21.60;59.70
30594;DHT22;33199;47.590;8.300;2022-09-09T14:34:55;21.60;59.80
30594;DHT22;33199;47.590;8.300;2022-09-09T14:37:20;21.60;59.80
30594;DHT22;33199;47.590;8.300;2022-09-09T14:39:46;21.60;59.80
30594;DHT22;33199;47.590;8.300;2022-09-09T14:42:12;21.60;59.90
30594;DHT22;33199;47.590;8.300;2022-09-09T14:44:38;21.60;59.90
30594;DHT22;33199;47.590;8.300;2022-09-09T14:47:05;21.60;59.90
30594;DHT22;33199;47.590;8.300;2022-09-09T14:49:30;21.60;59.90
30594;DHT22;33199;47.590;8.300;2022-09-09T14:51:56;21.60;59.80
30594;DHT22;33199;47.590;8.300;2022-09-09T14:54:22;21.70;59.90
30594;DHT22;33199;47.590;8.300;2022-09-09T14:56:48;21.70;60.00
30594;DHT22;33199;47.590;8.300;2022-09-09T14:59:14;21.70;59.90
30594;DHT22;33199;47.590;8.300;2022-09-09T15:01:40;21.70;59.80
30594;DHT22;33199;47.590;8.300;2022-09-09T15:04:06;21.70;59.90
30594;DHT22;33199;47.590;8.300;2022-09-09T15:06:34;21.70;60.00
30594;DHT22;33199;47.590;8.300;2022-09-09T15:09:02;21.70;59.90
30594;DHT22;33199;47.590;8.300;2022-09-09T15:11:29;21.70;60.00
30594;DHT22;33199;47.590;8.300;2022-09-09T15:13:56;21.70;59.90
30594;DHT22;33199;47.590;8.300;2022-09-09T15:16:27;21.70;59.90
30594;DHT22;33199;47.590;8.300;2022-09-09T15:18:54;21.70;60.00
30594;DHT22;33199;47.590;8.300;2022-09-09T15:21:22;21.70;60.00
30594;DHT22;33199;47.590;8.300;2022-09-09T15:23:49;21.70;59.80
30594;DHT22;33199;47.590;8.300;2022-09-09T15:26:15;21.70;59.90
30594;DHT22;33199;47.590;8.300;2022-09-09T15:28:41;21.70;59.70
30594;DHT22;33199;47.590;8.300;2022-09-09T15:31:20;21.70;59.80
30594;DHT22;33199;47.590;8.300;2022-09-09T15:33:53;21.70;59.80
30594;DHT22;33199;47.590;8.300;2022-09-09T15:36:28;21.70;59.90
30594;DHT22;33199;47.590;8.300;2022-09-09T15:38:54;21.80;60.00
30594;DHT22;33199;47.590;8.300;2022-09-09T15:41:22;21.70;59.90
30594;DHT22;33199;47.590;8.300;2022-09-09T15:43:50;21.70;60.10
30594;DHT22;33199;47.590;8.300;2022-09-09T15:48:41;21.70;60.00
30594;DHT22;33199;47.590;8.300;2022-09-09T15:51:07;21.70;60.30
30594;DHT22;33199;47.590;8.300;2022-09-09T15:53:35;21.80;59.90
30594;DHT22;33199;47.590;8.300;2022-09-09T15:56:01;21.70;60.00
30594;DHT22;33199;47.590;8.300;2022-09-09T15:58:30;21.80;60.00
30594;DHT22;33199;47.590;8.300;2022-09-09T16:01:02;21.80;60.00
30594;DHT22;33199;47.590;8.300;2022-09-09T16:03:30;21.80;59.80
30594;DHT22;33199;47.590;8.300;2022-09-09T16:05:59;21.80;60.20
30594;DHT22;33199;47.590;8.300;2022-09-09T16:08:30;21.80;59.80
30594;DHT22;33199;47.590;8.300;2022-09-09T16:10:56;21.80;59.80
30594;DHT22;33199;47.590;8.300;2022-09-09T16:13:21;21.80;59.90
30594;DHT22;33199;47.590;8.300;2022-09-09T16:15:54;21.80;59.90
30594;DHT22;33199;47.590;8.300;2022-09-09T16:18:20;21.80;60.30
30594;DHT22;33199;47.590;8.300;2022-09-09T16:20:54;21.80;60.10
30594;DHT22;33199;47.590;8.300;2022-09-09T16:23:20;21.80;59.90
30594;DHT22;33199;47.590;8.300;2022-09-09T16:25:56;21.80;60.10
30594;DHT22;33199;47.590;8.300;2022-09-09T16:28:22;21.80;59.70
30594;DHT22;33199;47.590;8.300;2022-09-09T16:30:48;21.80;59.90
30594;DHT22;33199;47.590;8.300;2022-09-09T16:33:14;21.80;59.70
30594;DHT22;33199;47.590;8.300;2022-09-09T16:35:42;21.80;59.80
30594;DHT22;33199;47.590;8.300;2022-09-09T16:38:08;21.80;59.70
30594;DHT22;33199;47.590;8.300;2022-09-09T16:40:34;21.80;59.70
30594;DHT22;33199;47.590;8.300;2022-09-09T16:43:00;21.80;59.70
30594;DHT22;33199;47.590;8.300;2022-09-09T16:45:26;21.80;59.80
30594;DHT22;33199;47.590;8.300;2022-09-09T16:47:52;21.80;59.70
30594;DHT22;33199;47.590;8.300;2022-09-09T16:50:18;21.80;59.60
30594;DHT22;33199;47.590;8.300;2022-09-09T16:52:44;21.80;59.60
30594;DHT22;33199;47.590;8.300;2022-09-09T16:55:09;21.80;59.60
30594;DHT22;33199;47.590;8.300;2022-09-09T16:57:35;21.80;59.50
30594;DHT22;33199;47.590;8.300;2022-09-09T17:00:01;21.80;59.40
30594;DHT22;33199;47.590;8.300;2022-09-09T17:02:30;21.80;59.50
30594;DHT22;33199;47.590;8.300;2022-09-09T17:04:57;21.80;59.40
30594;DHT22;33199;47.590;8.300;2022-09-09T17:07:22;21.80;59.30
30594;DHT22;33199;47.590;8.300;2022-09-09T17:09:48;21.80;59.10
30594;DHT22;33199;47.590;8.300;2022-09-09T17:12:14;21.80;59.70
30594;DHT22;33199;47.590;8.300;2022-09-09T17:14:42;21.80;59.20
30594;DHT22;33199;47.590;8.300;2022-09-09T17:17:07;21.80;59.30
30594;DHT22;33199;47.590;8.300;2022-09-09T17:19:34;21.80;59.50
30594;DHT22;33199;47.590;8.300;2022-09-09T17:21:59;21.80;59.50
30594;DHT22;33199;47.590;8.300;2022-09-09T17:24:26;21.80;59.50
30594;DHT22;33199;47.590;8.300;2022-09-09T17:26:54;21.90;59.50
30594;DHT22;33199;47.590;8.300;2022-09-09T17:29:21;21.80;59.50
30594;DHT22;33199;47.590;8.300;2022-09-09T17:31:47;21.80;59.50
30594;DHT22;33199;47.590;8.300;2022-09-09T17:34:13;21.80;59.50
30594;DHT22;33199;47.590;8.300;2022-09-09T17:36:38;21.80;59.50
30594;DHT22;33199;47.590;8.300;2022-09-09T17:39:06;21.80;59.50
30594;DHT22;33199;47.590;8.300;2022-09-09T17:41:37;21.80;59.50
30594;DHT22;33199;47.590;8.300;2022-09-09T17:44:04;21.80;59.50
30594;DHT22;33199;47.590;8.300;2022-09-09T17:46:32;21.80;59.50
30594;DHT22;33199;47.590;8.300;2022-09-09T17:49:02;21.80;58.80
30594;DHT22;33199;47.590;8.300;2022-09-09T17:51:31;21.70;55.90
30594;DHT22;33199;47.590;8.300;2022-09-09T17:54:05;21.60;54.90
30594;DHT22;33199;47.590;8.300;2022-09-09T17:56:33;21.60;55.30
30594;DHT22;33199;47.590;8.300;2022-09-09T17:59:01;21.60;56.20
30594;DHT22;33199;47.590;8.300;2022-09-09T18:01:32;21.60;56.70
30594;DHT22;33199;47.590;8.300;2022-09-09T18:04:00;21.60;57.40